createdAt,value
2019-03-24T00:02:33.286Z,10.10
2019-03-24T00:22:04.321Z,9.70
2019-03-24T00:22:58.404Z,9.70
2019-03-24T00:36:02.158Z,9.40
2019-03-24T00:40:45.977Z,9.40
2019-03-24T00:41:07.901Z,9.30
2019-03-24T00:42:36.580Z,9.30
2019-03-24T00:45:01.964Z,9.30
2019-03-24T00:46:15.218Z,9.30
2019-03-24T00:46:19.528Z,9.40
2019-03-24T00:49:15.367Z,9.30
2019-03-24T00:50:43.364Z,9.30
2019-03-24T00:51:35.059Z,9.20
2019-03-24T00:52:54.918Z,9.20
2019-03-24T00:54:06.430Z,9.20
2019-03-24T00:55:51.352Z,9.20
2019-03-24T00:56:40.203Z,9.20
2019-03-24T00:59:05.568Z,9.20
2019-03-24T01:00:17.390Z,9.20
2019-03-24T01:02:50.744Z,9.10
2019-03-24T01:03:59.906Z,9.10
2019-03-24T01:05:09.703Z,9.10
2019-03-24T01:07:59.632Z,9.10
2019-03-24T01:11:54.576Z,9.10
2019-03-24T01:12:12.819Z,9.00
2019-03-24T01:13:27.659Z,9.00
2019-03-24T01:15:03.413Z,9.00
2019-03-24T01:16:09.757Z,9.00
2019-03-24T01:18:53.340Z,8.90
2019-03-24T01:20:14.220Z,8.90
2019-03-24T01:45:45.526Z,8.50
2019-03-24T01:46:50.039Z,8.50
2019-03-24T01:55:13.749Z,8.40
2019-03-24T02:03:03.998Z,8.30
2019-03-24T02:05:30.941Z,8.20
2019-03-24T02:16:52.203Z,8.10
2019-03-24T02:17:18.891Z,8.10
2019-03-24T02:33:46.377Z,8.00
2019-03-24T02:39:20.062Z,8.00
2019-03-24T02:41:29.325Z,7.90
2019-03-24T02:48:57.025Z,7.90
2019-03-24T02:57:37.332Z,7.80
2019-03-24T02:58:21.562Z,7.80
2019-03-24T03:03:57.742Z,7.80
2019-03-24T03:05:21.963Z,7.80
2019-03-24T03:19:58.102Z,7.60
2019-03-24T03:21:03.147Z,7.60
2019-03-24T03:30:45.201Z,7.50
2019-03-24T03:33:32.275Z,7.40
2019-03-24T03:34:37.420Z,7.30
2019-03-24T03:35:34.985Z,7.40
2019-03-24T03:38:45.131Z,7.30
2019-03-24T03:41:44.099Z,7.20
2019-03-24T03:42:47.829Z,7.20
2019-03-24T03:44:01.151Z,7.20
2019-03-24T03:45:20.714Z,7.20
2019-03-24T03:46:20.811Z,7.10
2019-03-24T03:47:37.717Z,7.10
2019-03-24T03:48:54.030Z,7.10
2019-03-24T03:51:25.687Z,7.10
2019-03-24T03:52:34.704Z,7.00
2019-03-24T03:54:09.116Z,7.00
2019-03-24T03:55:05.433Z,7.00
2019-03-24T03:56:34.940Z,7.00
2019-03-24T03:58:54.820Z,6.90
2019-03-24T04:00:01.993Z,6.90
2019-03-24T04:01:07.850Z,6.90
2019-03-24T04:02:12.283Z,6.90
2019-03-24T04:03:17.971Z,6.80
2019-03-24T04:04:22.270Z,6.80
2019-03-24T04:05:31.137Z,7.30
2019-03-24T04:06:36.959Z,6.80
2019-03-24T04:07:44.408Z,6.80
2019-03-24T04:08:51.852Z,6.80
2019-03-24T04:09:56.183Z,6.80
2019-03-24T04:11:05.585Z,6.70
2019-03-24T04:12:08.003Z,6.70
2019-03-24T04:13:14.966Z,6.70
2019-03-24T04:14:22.144Z,6.70
2019-03-24T04:15:55.019Z,6.70
2019-03-24T04:16:43.658Z,6.70
2019-03-24T04:18:04.142Z,6.70
2019-03-24T04:19:12.544Z,6.70
2019-03-24T04:23:55.391Z,6.60
2019-03-24T04:24:48.352Z,6.50
2019-03-24T04:30:56.038Z,6.50
2019-03-24T04:32:26.681Z,6.40
2019-03-24T04:36:20.447Z,6.40
2019-03-24T04:37:34.957Z,6.40
2019-03-24T04:38:42.797Z,6.30
2019-03-24T04:39:50.859Z,6.30
2019-03-24T04:40:55.077Z,6.30
2019-03-24T04:42:02.374Z,6.30
2019-03-24T04:43:25.697Z,6.30
2019-03-24T04:44:43.035Z,6.30
2019-03-24T04:45:44.902Z,6.30
2019-03-24T04:46:58.177Z,6.30
2019-03-24T04:48:06.501Z,6.30
2019-03-24T04:49:13.888Z,6.30
2019-03-24T04:50:22.448Z,6.30
2019-03-24T04:51:30.895Z,6.30
2019-03-24T04:52:45.931Z,6.30
2019-03-24T04:54:11.437Z,6.30
2019-03-24T04:55:09.781Z,6.30
2019-03-24T04:56:13.175Z,6.30
2019-03-24T04:57:22.655Z,6.20
2019-03-24T04:58:26.513Z,6.30
2019-03-24T04:59:32.363Z,6.20
2019-03-24T05:00:43.734Z,6.20
2019-03-24T05:01:52.051Z,6.20
2019-03-24T05:02:58.519Z,6.20
2019-03-24T05:04:06.386Z,6.20
2019-03-24T05:05:31.724Z,6.20
2019-03-24T05:06:34.047Z,6.20
2019-03-24T05:07:40.341Z,6.20
2019-03-24T05:08:50.421Z,6.20
2019-03-24T05:10:06.665Z,6.20
2019-03-24T05:11:16.879Z,6.20
2019-03-24T05:12:25.584Z,6.20
2019-03-24T05:13:37.270Z,6.20
2019-03-24T05:14:42.610Z,6.20
2019-03-24T05:15:57.715Z,6.20
2019-03-24T05:17:00.455Z,6.20
2019-03-24T05:18:11.166Z,6.20
2019-03-24T05:20:56.501Z,6.20
2019-03-24T05:29:50.639Z,6.20
2019-03-24T05:33:58.143Z,6.20
2019-03-24T05:36:41.849Z,6.20
2019-03-24T05:38:00.592Z,6.20
2019-03-24T05:39:14.159Z,6.20
2019-03-24T05:41:58.210Z,6.20
2019-03-24T05:43:38.967Z,6.10
2019-03-24T05:44:27.579Z,6.10
2019-03-24T05:46:07.332Z,6.20
2019-03-24T05:48:29.530Z,6.10
2019-03-24T05:49:47.343Z,6.10
2019-03-24T05:50:50.661Z,6.20
2019-03-24T05:52:06.318Z,6.20
2019-03-24T05:53:26.507Z,6.20
2019-03-24T05:54:31.415Z,6.20
2019-03-24T05:56:28.609Z,6.20
2019-03-24T06:00:10.809Z,6.30
2019-03-24T06:02:51.136Z,6.40
2019-03-24T06:03:59.784Z,6.50
2019-03-24T06:05:11.465Z,6.50
2019-03-24T06:06:26.479Z,6.50
2019-03-24T06:07:47.129Z,6.50
2019-03-24T06:08:52.920Z,6.60
2019-03-24T06:10:00.552Z,6.70
2019-03-24T06:11:12.912Z,6.70
2019-03-24T06:12:32.200Z,6.70
2019-03-24T06:15:06.453Z,6.80
2019-03-24T06:19:57.714Z,7.00
2019-03-24T06:20:27.515Z,7.00
2019-03-24T06:21:28.688Z,7.00
2019-03-24T06:22:52.955Z,7.10
2019-03-24T06:23:57.563Z,7.10
2019-03-24T06:25:10.535Z,7.20
2019-03-24T06:26:15.949Z,7.20
2019-03-24T06:27:22.167Z,7.30
2019-03-24T06:28:36.306Z,7.30
2019-03-24T06:32:35.598Z,7.40
2019-03-24T06:35:24.777Z,7.50
2019-03-24T06:40:21.227Z,7.70
2019-03-24T06:46:17.526Z,7.80
2019-03-24T06:47:57.356Z,7.80
2019-03-24T06:48:53.249Z,7.80
2019-03-24T06:50:07.826Z,7.80
2019-03-24T06:51:15.063Z,7.80
2019-03-24T06:52:22.702Z,7.80
2019-03-24T06:53:26.972Z,7.80
2019-03-24T06:54:36.749Z,7.80
2019-03-24T06:55:45.904Z,7.90
2019-03-24T06:57:04.062Z,7.90
2019-03-24T06:58:25.252Z,7.90
2019-03-24T07:00:12.984Z,8.00
2019-03-24T07:00:44.302Z,8.00
2019-03-24T07:02:09.952Z,8.00
2019-03-24T07:03:16.048Z,8.00
2019-03-24T07:08:20.480Z,8.10
2019-03-24T07:10:43.332Z,8.20
2019-03-24T07:13:04.887Z,8.20
2019-03-24T07:14:24.303Z,8.20
2019-03-24T07:17:29.137Z,8.20
2019-03-24T07:20:36.921Z,8.20
2019-03-24T07:21:50.256Z,8.20
2019-03-24T07:22:50.520Z,8.20
2019-03-24T07:25:37.215Z,8.20
2019-03-24T07:27:20.426Z,8.20
2019-03-24T07:31:09.876Z,8.30
2019-03-24T07:33:39.876Z,8.40
2019-03-24T07:36:11.428Z,8.40
2019-03-24T07:38:55.381Z,8.40
2019-03-24T07:39:07.280Z,8.40
2019-03-24T07:40:36.465Z,8.70
2019-03-24T07:44:05.032Z,8.50
2019-03-24T07:45:12.044Z,8.50
2019-03-24T07:53:54.076Z,8.70
2019-03-24T07:55:05.301Z,8.60
2019-03-24T07:56:15.074Z,8.70
2019-03-24T07:57:29.118Z,8.70
2019-03-24T07:58:42.414Z,8.70
2019-03-24T07:59:53.295Z,8.70
2019-03-24T08:06:35.010Z,8.90
2019-03-24T08:07:34.470Z,8.90
2019-03-24T08:08:44.582Z,8.90
2019-03-24T08:09:47.899Z,9.00
2019-03-24T08:10:53.760Z,9.00
2019-03-24T08:12:25.664Z,9.10
2019-03-24T08:14:59.869Z,9.10
2019-03-24T08:16:11.329Z,9.10
2019-03-24T08:20:19.991Z,9.10
2019-03-24T08:21:33.789Z,9.10
2019-03-24T08:24:46.539Z,9.10
2019-03-24T08:25:34.560Z,9.20
2019-03-24T08:27:21.669Z,9.20
2019-03-24T08:31:05.170Z,9.30
2019-03-24T08:36:12.482Z,9.30
2019-03-24T08:36:39.388Z,9.40
2019-03-24T08:38:12.146Z,9.50
2019-03-24T08:41:05.856Z,9.50
2019-03-24T08:41:20.482Z,9.50
2019-03-24T08:44:05.757Z,9.50
2019-03-24T08:45:11.247Z,9.50
2019-03-24T08:49:53.559Z,9.50
2019-03-24T08:54:47.808Z,9.60
2019-03-24T08:56:10.466Z,9.60
2019-03-24T08:57:37.418Z,9.60
2019-03-24T09:00:14.860Z,9.70
2019-03-24T09:01:42.468Z,9.70
2019-03-24T09:10:31.848Z,9.80
2019-03-24T09:11:49.291Z,9.80
2019-03-24T09:18:35.820Z,10.10
2019-03-24T09:20:12.512Z,10.20
2019-03-24T09:20:58.465Z,10.30
2019-03-24T09:22:04.409Z,10.30
2019-03-24T09:23:13.425Z,10.40
2019-03-24T09:24:21.855Z,10.40
2019-03-24T09:25:27.951Z,10.40
2019-03-24T09:26:36.285Z,10.40
2019-03-24T09:28:03.429Z,10.40
2019-03-24T09:29:08.158Z,10.50
2019-03-24T09:30:38.176Z,10.50
2019-03-24T09:31:55.898Z,10.50
2019-03-24T09:33:00.203Z,10.50
2019-03-24T09:34:08.234Z,10.50
2019-03-24T09:36:06.431Z,10.50
2019-03-24T09:36:34.596Z,10.40
2019-03-24T09:38:20.584Z,10.40
2019-03-24T09:38:57.074Z,10.40
2019-03-24T09:40:09.281Z,10.30
2019-03-24T09:41:21.012Z,10.30
2019-03-24T09:42:28.283Z,10.30
2019-03-24T09:43:40.908Z,10.20
2019-03-24T09:44:46.838Z,10.20
2019-03-24T09:45:56.274Z,10.20
2019-03-24T09:47:09.996Z,10.20
2019-03-24T09:48:26.326Z,10.10
2019-03-24T09:51:03.977Z,10.20
2019-03-24T09:53:18.568Z,10.20
2019-03-24T09:55:05.160Z,10.20
2019-03-24T09:56:02.994Z,10.10
2019-03-24T09:57:55.335Z,10.10
2019-03-24T09:59:27.860Z,10.10
2019-03-24T10:01:32.036Z,10.10
2019-03-24T10:02:37.654Z,10.10
2019-03-24T10:03:42.465Z,10.10
2019-03-24T10:07:23.460Z,10.20
2019-03-24T10:07:39.754Z,10.20
2019-03-24T10:08:48.243Z,10.20
2019-03-24T10:09:57.006Z,10.20
2019-03-24T10:11:04.020Z,10.20
2019-03-24T10:12:11.944Z,10.30
2019-03-24T10:13:50.071Z,10.30
2019-03-24T10:14:40.588Z,10.30
2019-03-24T10:15:56.776Z,10.40
2019-03-24T10:17:14.203Z,10.40
2019-03-24T10:18:27.215Z,10.40
2019-03-24T10:19:40.177Z,10.40
2019-03-24T10:20:56.615Z,10.40
2019-03-24T10:22:03.884Z,10.40
2019-03-24T10:23:13.857Z,10.40
2019-03-24T10:24:27.578Z,10.40
2019-03-24T10:25:36.710Z,10.40
2019-03-24T10:27:14.364Z,10.50
2019-03-24T10:28:41.954Z,10.50
2019-03-24T10:31:42.553Z,10.60
2019-03-24T10:34:19.534Z,10.70
2019-03-24T10:35:11.674Z,10.70
2019-03-24T10:37:00.422Z,10.70
2019-03-24T10:39:05.965Z,10.80
2019-03-24T10:43:06.315Z,10.90
2019-03-24T10:43:26.533Z,10.80
2019-03-24T10:45:46.549Z,10.90
2019-03-24T10:47:11.549Z,11.00
2019-03-24T10:49:45.057Z,11.00
2019-03-24T10:53:14.780Z,11.20
2019-03-24T10:55:56.235Z,11.30
2019-03-24T11:01:02.460Z,11.90
2019-03-24T11:01:35.868Z,12.00
2019-03-24T11:04:25.558Z,12.10
2019-03-24T11:09:03.430Z,12.30
2019-03-24T11:10:24.222Z,12.30
2019-03-24T11:11:33.222Z,12.30
2019-03-24T11:12:39.066Z,12.30
2019-03-24T11:14:03.544Z,12.30
2019-03-24T11:15:06.077Z,12.20
2019-03-24T11:16:12.134Z,12.20
2019-03-24T11:17:24.008Z,12.20
2019-03-24T11:18:38.400Z,12.20
2019-03-24T11:19:36.108Z,12.20
2019-03-24T11:20:48.271Z,12.20
2019-03-24T11:23:26.117Z,12.10
2019-03-24T11:24:41.519Z,12.10
2019-03-24T11:25:57.391Z,12.10
2019-03-24T11:27:05.065Z,12.10
2019-03-24T11:28:14.732Z,12.20
2019-03-24T11:29:24.853Z,12.20
2019-03-24T11:30:38.882Z,12.30
2019-03-24T11:31:45.914Z,12.30
2019-03-24T11:32:50.773Z,12.40
2019-03-24T11:34:01.938Z,12.40
2019-03-24T11:35:10.068Z,12.40
2019-03-24T11:37:47.907Z,12.50
2019-03-24T11:39:05.246Z,12.60
2019-03-24T11:40:13.539Z,12.70
2019-03-24T11:41:20.578Z,12.80
2019-03-24T11:42:41.259Z,12.80
2019-03-24T11:44:00.233Z,12.90
2019-03-24T11:45:12.624Z,12.90
2019-03-24T11:46:21.520Z,12.90
2019-03-24T11:52:07.649Z,13.00
2019-03-24T11:53:23.833Z,13.10
2019-03-24T11:54:59.702Z,13.10
2019-03-24T11:57:51.508Z,13.30
2019-03-24T11:58:05.314Z,13.20
2019-03-24T11:58:57.191Z,13.30
2019-03-24T12:00:07.141Z,13.40
2019-03-24T12:01:26.343Z,13.30
2019-03-24T12:03:19.551Z,13.30
2019-03-24T12:04:00.790Z,13.30
2019-03-24T12:04:53.355Z,13.30
2019-03-24T12:06:34.829Z,13.30
2019-03-24T12:07:17.740Z,13.30
2019-03-24T12:08:29.070Z,13.30
2019-03-24T12:09:36.359Z,13.30
2019-03-24T12:10:54.612Z,13.30
2019-03-24T12:15:14.045Z,13.30
2019-03-24T12:16:16.557Z,13.30
2019-03-24T12:17:29.468Z,13.30
2019-03-24T12:18:39.558Z,13.30
2019-03-24T12:19:59.839Z,13.30
2019-03-24T12:21:07.321Z,13.30
2019-03-24T12:22:19.327Z,13.30
2019-03-24T12:23:26.297Z,13.30
2019-03-24T12:26:08.108Z,13.20
2019-03-24T12:27:31.163Z,13.10
2019-03-24T12:29:56.118Z,13.10
2019-03-24T12:31:13.408Z,13.10
2019-03-24T12:32:16.321Z,13.10
2019-03-24T12:33:22.165Z,13.10
2019-03-24T12:34:38.112Z,13.20
2019-03-24T12:38:30.500Z,13.20
2019-03-24T12:39:17.295Z,13.30
2019-03-24T12:41:50.472Z,13.40
2019-03-24T12:43:18.451Z,13.50
2019-03-24T12:44:29.252Z,13.50
2019-03-24T12:45:33.568Z,13.60
2019-03-24T12:47:12.082Z,13.70
2019-03-24T12:49:19.402Z,13.70
2019-03-24T12:50:31.378Z,13.70
2019-03-24T12:51:59.672Z,13.80
2019-03-24T12:55:04.287Z,13.90
2019-03-24T12:56:14.736Z,13.90
2019-03-24T12:57:22.241Z,13.90
2019-03-24T12:59:06.321Z,13.90
2019-03-24T13:00:16.823Z,14.00
2019-03-24T13:01:20.055Z,14.00
2019-03-24T13:02:25.924Z,14.00
2019-03-24T13:04:39.176Z,14.10
2019-03-24T13:05:56.673Z,14.10
2019-03-24T13:06:46.041Z,14.10
2019-03-24T13:10:32.025Z,14.10
2019-03-24T13:13:13.891Z,14.00
2019-03-24T13:14:23.545Z,14.00
2019-03-24T13:15:47.753Z,14.00
2019-03-24T13:17:02.924Z,14.00
2019-03-24T13:19:48.725Z,14.00
2019-03-24T13:20:57.405Z,14.00
2019-03-24T13:23:55.897Z,14.10
2019-03-24T13:25:06.887Z,14.10
2019-03-24T13:26:11.171Z,14.20
2019-03-24T13:28:01.936Z,14.20
2019-03-24T13:29:06.192Z,14.10
2019-03-24T13:30:13.963Z,14.10
2019-03-24T13:31:23.980Z,14.10
2019-03-24T13:32:45.001Z,14.10
2019-03-24T13:33:58.110Z,14.10
2019-03-24T13:35:11.600Z,14.10
2019-03-24T13:36:24.314Z,14.20
2019-03-24T13:37:53.146Z,14.20
2019-03-24T13:39:03.965Z,14.20
2019-03-24T13:40:25.623Z,14.20
2019-03-24T13:41:36.174Z,14.20
2019-03-24T13:42:42.217Z,14.20
2019-03-24T13:43:54.905Z,14.10
2019-03-24T13:45:21.432Z,14.10
2019-03-24T13:46:36.214Z,14.00
2019-03-24T13:47:41.644Z,13.90
2019-03-24T13:48:45.752Z,13.90
2019-03-24T13:49:58.705Z,13.80
2019-03-24T13:51:03.202Z,13.80
2019-03-24T13:52:07.519Z,13.80
2019-03-24T13:53:11.871Z,13.80
2019-03-24T13:54:17.672Z,13.70
2019-03-24T13:55:25.999Z,13.80
2019-03-24T13:56:31.857Z,13.80
2019-03-24T13:57:36.190Z,13.90
2019-03-24T13:58:43.771Z,13.90
2019-03-24T13:59:55.707Z,13.90
2019-03-24T14:01:01.644Z,13.90
2019-03-24T14:02:11.894Z,13.90
2019-03-24T14:03:20.325Z,14.00
2019-03-24T14:04:30.852Z,14.00
2019-03-24T14:05:43.399Z,14.00
2019-03-24T14:06:50.641Z,14.00
2019-03-24T14:07:58.124Z,14.10
2019-03-24T14:09:05.094Z,14.10
2019-03-24T14:10:09.448Z,14.10
2019-03-24T14:11:14.334Z,14.10
2019-03-24T14:12:18.512Z,14.10
2019-03-24T14:13:24.470Z,14.10
2019-03-24T14:14:30.453Z,14.10
2019-03-24T14:15:36.353Z,14.10
2019-03-24T14:16:47.877Z,14.10
2019-03-24T14:17:52.443Z,14.00
2019-03-24T14:18:56.753Z,14.10
2019-03-24T14:20:00.974Z,14.00
2019-03-24T14:21:05.182Z,14.00
2019-03-24T14:22:13.612Z,13.90
2019-03-24T14:23:24.868Z,13.90
2019-03-24T14:24:28.295Z,13.80
2019-03-24T14:25:36.526Z,13.80
2019-03-24T14:26:42.770Z,13.80
2019-03-24T14:27:47.184Z,13.70
2019-03-24T14:28:51.331Z,13.70
2019-03-24T14:29:59.153Z,13.70
2019-03-24T14:31:05.126Z,13.70
2019-03-24T14:32:09.459Z,13.70
2019-03-24T14:33:15.725Z,13.60
2019-03-24T14:34:20.046Z,13.60
2019-03-24T14:35:25.875Z,13.50
2019-03-24T14:36:30.248Z,13.50
2019-03-24T14:37:42.245Z,13.50
2019-03-24T14:38:44.912Z,13.50
2019-03-24T14:39:49.386Z,13.50
2019-03-24T14:41:29.067Z,13.50
2019-03-24T14:42:42.645Z,13.50
2019-03-24T14:43:36.164Z,13.50
2019-03-24T14:44:40.452Z,13.50
2019-03-24T14:46:09.773Z,13.10
2019-03-24T14:46:52.447Z,13.40
2019-03-24T14:47:58.505Z,13.40
2019-03-24T14:49:02.705Z,13.40
2019-03-24T14:50:07.405Z,13.30
2019-03-24T14:51:11.737Z,13.40
2019-03-24T14:52:16.046Z,13.40
2019-03-24T14:53:21.689Z,13.40
2019-03-24T14:54:27.356Z,13.40
2019-03-24T14:55:31.667Z,13.50
2019-03-24T14:56:35.895Z,13.50
2019-03-24T14:57:40.245Z,13.50
2019-03-24T14:58:44.442Z,13.50
2019-03-24T14:59:48.611Z,13.50
2019-03-24T15:01:01.482Z,13.50
2019-03-24T15:02:07.201Z,13.50
2019-03-24T15:03:11.631Z,13.40
2019-03-24T15:04:15.905Z,13.40
2019-03-24T15:05:20.221Z,13.40
2019-03-24T15:06:29.953Z,13.30
2019-03-24T15:07:34.230Z,13.30
2019-03-24T15:08:38.493Z,13.20
2019-03-24T15:09:44.214Z,13.20
2019-03-24T15:10:49.684Z,13.10
2019-03-24T15:11:53.947Z,13.10
2019-03-24T15:12:58.172Z,13.00
2019-03-24T15:14:03.966Z,13.00
2019-03-24T15:15:08.301Z,13.00
2019-03-24T15:16:14.272Z,13.00
2019-03-24T15:17:18.449Z,12.90
2019-03-24T15:18:22.674Z,13.00
2019-03-24T15:19:26.884Z,12.90
2019-03-24T15:20:31.430Z,12.90
2019-03-24T15:21:37.450Z,13.00
2019-03-24T15:22:47.317Z,13.10
2019-03-24T15:23:53.854Z,13.30
2019-03-24T15:25:00.670Z,13.40
2019-03-24T15:26:05.326Z,13.40
2019-03-24T15:27:09.577Z,13.50
2019-03-24T15:28:17.016Z,13.50
2019-03-24T15:29:35.787Z,13.60
2019-03-24T15:30:31.164Z,13.60
2019-03-24T15:31:35.510Z,13.60
2019-03-24T15:32:44.163Z,13.60
2019-03-24T15:33:48.585Z,13.70
2019-03-24T15:34:52.995Z,13.80
2019-03-24T15:35:58.943Z,13.90
2019-03-24T15:37:28.740Z,14.20
2019-03-24T15:38:21.433Z,14.50
2019-03-24T15:39:27.355Z,14.80
2019-03-24T15:40:34.430Z,15.20
2019-03-24T15:41:41.007Z,15.50
2019-03-24T15:42:46.896Z,15.80
2019-03-24T15:43:52.737Z,16.10
2019-03-24T15:44:58.600Z,16.30
2019-03-24T15:46:10.769Z,16.30
2019-03-24T15:47:15.184Z,16.20
2019-03-24T15:48:22.463Z,16.10
2019-03-24T15:49:27.398Z,16.00
2019-03-24T15:50:38.346Z,15.80
2019-03-24T15:51:53.064Z,15.60
2019-03-24T15:53:02.645Z,15.30
2019-03-24T15:54:06.948Z,15.10
2019-03-24T15:55:11.587Z,14.80
2019-03-24T15:56:18.830Z,14.60
2019-03-24T15:57:24.623Z,14.40
2019-03-24T15:58:33.314Z,14.20
2019-03-24T15:59:36.407Z,14.00
2019-03-24T16:00:43.436Z,13.80
2019-03-24T16:01:47.990Z,13.60
2019-03-24T16:02:52.169Z,13.50
2019-03-24T16:03:56.619Z,13.30
2019-03-24T16:05:02.405Z,13.20
2019-03-24T16:06:06.721Z,13.10
2019-03-24T16:07:13.836Z,13.00
2019-03-24T16:08:19.415Z,13.00
2019-03-24T16:09:23.593Z,12.90
2019-03-24T16:10:35.150Z,12.80
2019-03-24T16:11:36.737Z,12.70
2019-03-24T16:12:40.903Z,12.60
2019-03-24T16:13:47.823Z,12.50
2019-03-24T16:14:51.983Z,12.50
2019-03-24T16:15:56.755Z,12.40
2019-03-24T16:17:00.959Z,12.40
2019-03-24T16:18:06.604Z,12.30
2019-03-24T16:19:10.782Z,12.20
2019-03-24T16:20:15.182Z,12.10
2019-03-24T16:21:27.350Z,12.10
2019-03-24T16:22:25.405Z,12.00
2019-03-24T16:23:29.655Z,12.00
2019-03-24T16:24:36.847Z,11.90
2019-03-24T16:25:42.673Z,11.90
2019-03-24T16:27:09.413Z,11.80
2019-03-24T16:28:13.580Z,11.70
2019-03-24T16:29:17.942Z,11.70
2019-03-24T16:30:22.215Z,11.60
2019-03-24T16:31:37.230Z,11.50
2019-03-24T16:32:38.400Z,11.50
2019-03-24T16:33:50.546Z,11.40
2019-03-24T16:34:54.974Z,11.40
2019-03-24T16:36:01.022Z,11.30
2019-03-24T16:37:12.332Z,11.30
2019-03-24T16:38:25.085Z,11.20
2019-03-24T16:39:29.770Z,11.20
2019-03-24T16:40:35.456Z,11.10
2019-03-24T16:41:42.829Z,11.10
2019-03-24T16:42:52.983Z,11.10
2019-03-24T16:44:02.287Z,11.10
2019-03-24T16:45:07.559Z,11.00
2019-03-24T16:46:12.936Z,11.00
2019-03-24T16:47:19.060Z,11.00
2019-03-24T16:48:24.866Z,11.00
2019-03-24T16:49:29.270Z,10.90
2019-03-24T16:50:39.336Z,10.90
2019-03-24T16:51:46.399Z,10.90
2019-03-24T16:52:50.724Z,10.80
2019-03-24T16:53:56.458Z,10.80
2019-03-24T16:55:04.781Z,10.80
2019-03-24T16:56:10.314Z,10.80
2019-03-24T16:57:16.044Z,10.70
2019-03-24T16:58:20.321Z,10.70
2019-03-24T16:59:26.688Z,10.70
2019-03-24T17:00:36.066Z,10.60
2019-03-24T17:01:40.321Z,10.60
2019-03-24T17:02:55.520Z,10.60
2019-03-24T17:04:05.528Z,10.60
2019-03-24T17:05:15.575Z,10.60
2019-03-24T17:06:22.323Z,10.50
2019-03-24T17:07:35.427Z,10.50
2019-03-24T17:08:42.521Z,10.50
2019-03-24T17:09:49.901Z,10.50
2019-03-24T17:10:54.179Z,10.50
2019-03-24T17:12:09.351Z,10.50
2019-03-24T17:13:15.414Z,10.40
2019-03-24T17:14:21.317Z,10.40
2019-03-24T17:15:32.242Z,10.40
2019-03-24T17:16:33.042Z,10.40
2019-03-24T17:17:37.332Z,10.30
2019-03-24T17:18:41.567Z,10.30
2019-03-24T17:19:47.404Z,10.30
2019-03-24T17:20:53.270Z,10.30
2019-03-24T17:22:09.240Z,10.30
2019-03-24T17:23:15.982Z,10.20
2019-03-24T17:24:23.278Z,10.20
2019-03-24T17:26:46.018Z,10.20
2019-03-24T17:27:17.322Z,10.20
2019-03-24T17:27:56.101Z,10.10
2019-03-24T17:29:01.590Z,10.10
2019-03-24T17:30:13.291Z,10.10
2019-03-24T17:31:21.268Z,10.10
2019-03-24T17:32:29.821Z,10.10
2019-03-24T17:33:34.228Z,10.10
2019-03-24T17:34:38.564Z,10.10
2019-03-24T17:35:50.116Z,10.10
2019-03-24T17:36:56.218Z,10.10
2019-03-24T17:38:00.534Z,10.10
2019-03-24T17:39:09.696Z,10.00
2019-03-24T17:40:13.438Z,10.00
2019-03-24T17:41:18.354Z,10.00
2019-03-24T17:42:30.813Z,10.00
2019-03-24T17:43:31.639Z,10.00
2019-03-24T17:44:37.408Z,10.00
2019-03-24T17:45:44.516Z,10.00
2019-03-24T17:46:55.885Z,10.00
2019-03-24T17:48:10.745Z,10.00
2019-03-24T17:49:12.369Z,10.00
2019-03-24T17:50:15.565Z,10.00
2019-03-24T17:51:24.219Z,10.00
2019-03-24T17:52:28.589Z,10.00
2019-03-24T17:53:43.368Z,10.00
2019-03-24T17:54:42.825Z,10.00
2019-03-24T17:55:48.580Z,10.00
2019-03-24T17:56:54.316Z,10.00
2019-03-24T17:58:02.973Z,10.00
2019-03-24T17:59:07.046Z,10.00
2019-03-24T18:00:15.227Z,10.00
2019-03-24T18:01:22.646Z,9.90
2019-03-24T18:02:27.858Z,9.90
2019-03-24T18:03:32.050Z,9.90
2019-03-24T18:04:37.989Z,9.90
2019-03-24T18:05:49.780Z,9.90
2019-03-24T18:06:55.748Z,9.90
2019-03-24T18:08:03.190Z,9.90
2019-03-24T18:09:13.333Z,9.90
2019-03-24T18:10:19.126Z,9.90
2019-03-24T18:11:25.756Z,9.90
2019-03-24T18:12:31.735Z,9.90
2019-03-24T18:13:42.350Z,9.90
2019-03-24T18:14:49.939Z,9.90
2019-03-24T18:15:54.238Z,9.90
2019-03-24T18:17:00.114Z,9.90
2019-03-24T18:18:10.020Z,9.90
2019-03-24T18:19:22.103Z,9.90
2019-03-24T18:20:31.618Z,9.90
2019-03-24T18:21:40.108Z,9.80
2019-03-24T18:22:48.994Z,9.90
2019-03-24T18:23:53.253Z,9.80
2019-03-24T18:25:21.070Z,9.90
2019-03-24T18:26:25.968Z,9.90
2019-03-24T18:27:30.879Z,9.80
2019-03-24T18:28:52.057Z,9.80
2019-03-24T18:29:54.238Z,9.80
2019-03-24T18:31:15.349Z,9.90
2019-03-24T18:32:36.331Z,9.80
2019-03-24T18:33:52.281Z,9.80
2019-03-24T18:36:15.006Z,9.90
2019-03-24T18:37:22.436Z,9.80
2019-03-24T18:38:35.628Z,9.90
2019-03-24T18:39:44.464Z,9.80
2019-03-24T18:40:55.714Z,9.90
2019-03-24T18:42:17.124Z,9.90
2019-03-24T18:43:30.237Z,9.80
2019-03-24T18:45:07.963Z,9.80
2019-03-24T18:45:48.063Z,9.90
2019-03-24T18:48:40.314Z,9.80
2019-03-24T18:49:51.063Z,9.80
2019-03-24T18:54:39.858Z,9.90
2019-03-24T18:55:30.143Z,9.90
2019-03-24T18:55:42.610Z,9.90
2019-03-24T18:56:54.016Z,9.80
2019-03-24T18:58:14.090Z,9.80
2019-03-24T18:59:21.909Z,9.80
2019-03-24T19:00:28.385Z,9.80
2019-03-24T19:01:44.215Z,9.80
2019-03-24T19:03:00.899Z,9.70
2019-03-24T19:04:07.880Z,9.80
2019-03-24T19:09:52.440Z,9.70
2019-03-24T19:11:04.814Z,9.70
2019-03-24T19:16:29.472Z,9.60
2019-03-24T19:17:41.592Z,9.60
2019-03-24T19:19:10.347Z,9.60
2019-03-24T19:20:07.258Z,9.60
2019-03-24T19:24:47.190Z,9.70
2019-03-24T19:29:13.727Z,9.60
2019-03-24T19:30:47.534Z,9.60
2019-03-24T19:43:06.302Z,9.50
2019-03-24T19:59:43.350Z,9.50
2019-03-24T20:08:36.645Z,9.50
2019-03-24T20:16:29.127Z,9.40
2019-03-24T20:24:13.036Z,9.40
2019-03-24T20:33:48.159Z,9.40
2019-03-24T20:34:52.939Z,9.40
2019-03-24T20:35:58.550Z,9.40
2019-03-24T20:42:32.578Z,9.30
2019-03-24T20:43:47.565Z,9.30
2019-03-24T20:47:00.911Z,9.30
2019-03-24T20:59:45.496Z,9.30
2019-03-24T21:06:24.785Z,9.30
2019-03-24T21:08:23.559Z,9.30
2019-03-24T21:08:33.161Z,9.30
2019-03-24T21:12:10.752Z,9.20
2019-03-24T21:13:00.088Z,9.20
2019-03-24T21:14:25.346Z,9.20
2019-03-24T21:15:38.959Z,9.20
2019-03-24T21:17:05.163Z,9.20
2019-03-24T21:18:09.023Z,9.20
2019-03-24T21:19:49.792Z,9.20
2019-03-24T21:21:00.894Z,9.20
2019-03-24T21:23:57.324Z,9.20
2019-03-24T21:29:24.868Z,9.20
2019-03-24T21:30:54.713Z,9.10
2019-03-24T21:38:29.623Z,9.00
2019-03-24T21:39:40.032Z,9.00
2019-03-24T21:41:01.219Z,9.00
2019-03-24T21:42:18.259Z,8.90
2019-03-24T21:43:35.566Z,8.90
2019-03-24T21:44:28.689Z,9.00
2019-03-24T21:45:37.478Z,8.90
2019-03-24T21:46:42.229Z,8.90
2019-03-24T21:47:58.517Z,8.90
2019-03-24T21:49:09.591Z,8.90
2019-03-24T21:50:22.360Z,8.90
2019-03-24T21:51:26.555Z,8.90
2019-03-24T21:52:42.241Z,8.90
2019-03-24T21:54:03.063Z,8.90
2019-03-24T21:55:14.735Z,8.90
2019-03-24T21:56:31.751Z,8.90
2019-03-24T21:57:44.417Z,8.90
2019-03-24T21:58:46.941Z,8.90
2019-03-24T21:59:53.395Z,8.90
2019-03-24T22:01:20.538Z,8.90
2019-03-24T22:02:28.161Z,8.90
2019-03-24T22:03:36.829Z,8.90
2019-03-24T22:04:49.380Z,8.90
2019-03-24T22:06:26.499Z,8.90
2019-03-24T22:07:41.445Z,8.90
2019-03-24T22:08:51.766Z,8.90
2019-03-24T22:10:00.407Z,8.90
2019-03-24T22:11:08.712Z,8.90
2019-03-24T22:12:16.612Z,8.90
2019-03-24T22:13:22.834Z,8.90
2019-03-24T22:14:36.355Z,8.90
2019-03-24T22:15:43.149Z,8.90
2019-03-24T22:16:57.153Z,8.90
2019-03-24T22:18:04.178Z,8.90
2019-03-24T22:19:13.370Z,8.90
2019-03-24T22:20:27.241Z,8.90
2019-03-24T22:21:37.326Z,8.90
2019-03-24T22:22:44.934Z,8.80
2019-03-24T22:25:34.054Z,8.80
2019-03-24T22:26:43.183Z,8.80
2019-03-24T22:27:49.538Z,8.80
2019-03-24T22:28:56.778Z,8.80
2019-03-24T22:30:00.916Z,8.90
2019-03-24T22:31:07.212Z,8.80
2019-03-24T22:32:20.799Z,8.80
2019-03-24T22:33:25.055Z,8.80
2019-03-24T22:34:30.965Z,8.80
2019-03-24T22:35:36.275Z,8.80
2019-03-24T22:36:44.726Z,8.80
2019-03-24T22:37:48.692Z,8.80
2019-03-24T22:39:03.546Z,8.80
2019-03-24T22:40:07.960Z,8.80
2019-03-24T22:41:28.198Z,8.80
2019-03-24T22:42:32.588Z,8.80
2019-03-24T22:43:39.558Z,8.80
2019-03-24T22:44:48.430Z,8.80
2019-03-24T22:45:59.437Z,8.80
2019-03-24T22:47:07.176Z,8.80
2019-03-24T22:48:14.038Z,8.80
2019-03-24T22:49:20.300Z,8.80
2019-03-24T22:50:29.499Z,8.80
2019-03-24T22:51:35.109Z,8.80
2019-03-24T22:53:03.908Z,8.80
2019-03-24T22:54:15.838Z,8.80